Time;durP1;ratioP1;P1;durP2;ratioP2;P2;SDS_P1;SDS_P2;PMS_P1;PMS_P2;Temp;Humidity;BMP_temperature;BMP_pressure;BME280_temperature;BME280_humidity;BME280_pressure;Samples;Min_cycle;Max_cycle;Signal;HPM_P1;HPM_P2
2022/01/16 00:04:34;;;;;;;37.10;14.35;;;;;;;1.31;100.00;101077.38;5089832;28;20085;-64
2022/01/16 00:07:03;;;;;;;40.67;16.80;;;;;;;1.22;100.00;101066.69;5089507;28;20111;-64
2022/01/16 00:09:32;;;;;;;36.42;15.40;;;;;;;1.33;100.00;101086.16;5089443;28;20369;-64
2022/01/16 00:12:00;;;;;;;27.45;12.80;;;;;;;1.18;100.00;101096.31;5092468;28;20024;-64
2022/01/16 00:14:27;;;;;;;36.83;12.55;;;;;;;1.10;100.00;101082.16;5110240;28;20023;-64
2022/01/16 00:16:53;;;;;;;31.38;12.27;;;;;;;1.13;100.00;101082.22;5109891;28;20116;-64
2022/01/16 00:19:18;;;;;;;34.38;14.55;;;;;;;1.11;100.00;101070.81;5090002;28;20020;-64
2022/01/16 00:21:44;;;;;;;30.90;13.85;;;;;;;0.84;100.00;101038.78;5092022;28;20073;-63
2022/01/16 00:24:12;;;;;;;40.80;14.90;;;;;;;0.99;100.00;101053.09;5089569;28;20030;-64
2022/01/16 00:26:39;;;;;;;41.30;15.32;;;;;;;0.96;100.00;101068.75;5089486;28;20035;-64
2022/01/16 00:29:09;;;;;;;33.25;14.68;;;;;;;0.97;100.00;101064.41;5091584;28;20437;-64
2022/01/16 00:31:37;;;;;;;51.97;26.05;;;;;;;1.00;100.00;101033.94;5089420;28;20062;-64
2022/01/16 00:34:04;;;;;;;37.60;14.00;;;;;;;0.98;100.00;101053.06;5073990;28;20020;-64
2022/01/16 00:36:29;;;;;;;31.40;12.73;;;;;;;0.89;100.00;101047.63;5092182;28;20047;-64
2022/01/16 00:38:57;;;;;;;36.05;15.88;;;;;;;0.77;100.00;101031.63;5089242;28;20016;-64
2022/01/16 00:41:23;;;;;;;32.88;13.02;;;;;;;0.80;100.00;101055.28;5089594;28;20024;-63
2022/01/16 00:43:50;;;;;;;39.75;14.25;;;;;;;0.58;100.00;101043.41;5089263;28;20387;-64
2022/01/16 00:46:16;;;;;;;37.50;13.07;;;;;;;0.60;100.00;101053.91;5089538;28;20024;-64
2022/01/16 00:48:41;;;;;;;37.05;13.52;;;;;;;0.67;100.00;101042.75;5089615;28;20051;-64
2022/01/16 00:51:07;;;;;;;35.17;13.30;;;;;;;0.72;100.00;101059.44;5095189;28;20819;-64
2022/01/16 00:53:32;;;;;;;37.90;14.40;;;;;;;0.74;100.00;101060.38;5108088;28;20024;-64
2022/01/16 00:55:58;;;;;;;33.63;14.00;;;;;;;0.73;100.00;101058.59;5109376;28;20107;-64
2022/01/16 00:58:23;;;;;;;39.25;14.05;;;;;;;0.78;100.00;101064.81;5110321;28;20027;-64
2022/01/16 01:00:49;;;;;;;32.03;13.20;;;;;;;0.74;100.00;101081.31;5113193;28;20030;-64
2022/01/16 01:03:15;;;;;;;39.05;13.70;;;;;;;0.72;100.00;101072.53;5113355;28;20026;-64
2022/01/16 01:05:41;;;;;;;29.95;11.77;;;;;;;0.83;100.00;101086.75;5113283;28;20016;-64
2022/01/16 01:08:08;;;;;;;37.58;14.25;;;;;;;0.85;100.00;101067.63;5110170;28;20382;-63
2022/01/16 01:10:37;;;;;;;35.65;14.20;;;;;;;0.79;100.00;101090.16;5113456;28;20456;-63
2022/01/16 01:13:21;;;;;;;37.95;13.20;;;;;;;0.81;100.00;101102.44;5100615;28;20030;-64
2022/01/16 01:15:50;;;;;;;39.55;13.18;;;;;;;0.70;100.00;101082.97;5109855;28;20047;-64
2022/01/16 01:18:19;;;;;;;39.20;15.77;;;;;;;0.82;100.00;101093.75;5101819;28;20039;-64
2022/01/16 01:20:48;;;;;;;41.15;14.02;;;;;;;0.82;100.00;101024.78;5094581;28;20020;-64
2022/01/16 01:23:14;;;;;;;42.72;11.95;;;;;;;0.81;100.00;100995.06;5095589;28;20126;-64
2022/01/16 01:25:42;;;;;;;29.08;12.23;;;;;;;0.90;100.00;100999.63;5093073;28;20035;-64
2022/01/16 01:28:08;;;;;;;28.75;12.23;;;;;;;0.80;100.00;101000.28;5103331;28;20110;-64
2022/01/16 01:30:35;;;;;;;36.78;13.00;;;;;;;0.81;100.00;101002.03;5112610;28;20027;-64
2022/01/16 01:33:00;;;;;;;32.47;14.55;;;;;;;0.82;100.00;100990.75;5112281;28;20028;-64
2022/01/16 01:35:28;;;;;;;34.53;13.98;;;;;;;0.87;100.00;101025.75;5113171;28;20533;-64
2022/01/16 01:37:54;;;;;;;44.50;14.95;;;;;;;0.84;100.00;101026.56;5112604;28;20068;-64
2022/01/16 01:40:26;;;;;;;32.55;11.52;;;;;;;0.97;100.00;101043.44;5112299;28;20475;-64
2022/01/16 01:51:32;;;;;;;35.83;13.43;;;;;;;0.92;100.00;101071.28;5092642;28;20514;-64
2022/01/16 01:53:59;;;;;;;33.83;14.00;;;;;;;0.85;100.00;101069.34;5091789;28;20032;-63
2022/01/16 01:56:25;;;;;;;33.78;11.82;;;;;;;0.77;100.00;101063.06;5092252;28;20491;-63
2022/01/16 01:58:53;;;;;;;31.10;12.63;;;;;;;0.70;100.00;101071.63;5091607;28;20038;-63
2022/01/16 02:01:19;;;;;;;42.22;14.63;;;;;;;0.70;100.00;101072.50;5092481;28;20070;-63
2022/01/16 02:03:45;;;;;;;39.58;15.60;;;;;;;0.85;100.00;101085.06;5092221;28;20036;-65
2022/01/16 02:06:22;;;;;;;47.13;16.00;;;;;;;0.90;100.00;101101.78;5092259;28;20039;-64
2022/01/16 02:08:56;;;;;;;40.53;14.65;;;;;;;1.00;100.00;101090.66;5091261;28;20395;-64
2022/01/16 02:11:24;;;;;;;39.70;15.32;;;;;;;0.94;100.00;101099.25;5092206;28;20107;-64
2022/01/16 02:35:09;;;;;;;37.80;13.57;;;;;;;0.87;100.00;101068.53;5112332;28;20027;-64
2022/01/16 02:37:34;;;;;;;36.53;15.07;;;;;;;0.89;100.00;101076.44;5111183;28;20085;-64
2022/01/16 02:40:08;;;;;;;39.83;14.35;;;;;;;0.97;100.00;101075.75;5110671;28;20045;-65
2022/01/16 02:42:38;;;;;;;34.45;14.40;;;;;;;0.99;100.00;101079.28;5109079;28;20058;-65
2022/01/16 02:45:06;;;;;;;36.33;13.35;;;;;;;1.06;100.00;101069.84;5112073;28;20027;-64
2022/01/16 02:47:31;;;;;;;36.22;13.50;;;;;;;1.05;100.00;101063.72;5111306;28;20020;-64
2022/01/16 02:50:00;;;;;;;36.63;12.50;;;;;;;1.00;100.00;101048.75;5102645;28;20039;-64
2022/01/16 02:52:25;;;;;;;32.33;12.32;;;;;;;0.93;100.00;101036.38;5091274;28;20074;-64
2022/01/16 02:54:54;;;;;;;36.95;13.38;;;;;;;0.96;100.00;101031.19;5090718;28;20111;-65
2022/01/16 02:57:21;;;;;;;37.20;11.68;;;;;;;1.00;100.00;101030.41;5090596;28;20027;-65
2022/01/16 02:59:54;;;;;;;33.70;12.80;;;;;;;0.83;100.00;101035.28;5090671;28;20020;-65
2022/01/16 03:02:24;;;;;;;39.10;12.98;;;;;;;0.82;100.00;101043.09;5090197;28;20024;-64
2022/01/16 03:04:50;;;;;;;30.38;11.85;;;;;;;0.75;100.00;101043.81;5093016;28;20023;-64
2022/01/16 03:07:15;;;;;;;27.42;11.65;;;;;;;0.72;100.00;101036.78;5090774;28;20085;-64
2022/01/16 03:10:17;;;;;;;27.45;11.20;;;;;;;0.71;100.00;101039.38;5092962;28;20027;-64
2022/01/16 03:12:42;;;;;;;33.30;12.02;;;;;;;0.71;100.00;101040.22;5100362;28;20361;-64
2022/01/16 03:15:08;;;;;;;35.05;12.32;;;;;;;0.79;100.00;101045.66;5110921;28;20027;-64
2022/01/16 03:17:52;;;;;;;36.55;12.27;;;;;;;0.78;100.00;101046.50;5105211;28;20063;-64
2022/01/16 03:23:01;;;;;;;32.40;12.10;;;;;;;0.89;100.00;101034.53;5092941;28;20043;-64
2022/01/16 03:25:26;;;;;;;36.83;12.57;;;;;;;0.82;100.00;101036.16;5072116;28;20031;-64
2022/01/16 03:27:52;;;;;;;41.42;13.68;;;;;;;0.86;100.00;101029.22;5089941;28;20032;-64
2022/01/16 03:30:17;;;;;;;34.20;11.38;;;;;;;0.86;100.00;101024.88;5096837;28;20028;-64
2022/01/16 03:32:43;;;;;;;35.95;12.55;;;;;;;0.77;100.00;101029.03;5110666;28;20045;-64
2022/01/16 03:35:08;;;;;;;35.33;12.30;;;;;;;0.78;100.00;101020.31;5111001;28;20023;-64
2022/01/16 03:37:34;;;;;;;34.53;11.85;;;;;;;0.78;100.00;101028.16;5110583;28;20031;-64
2022/01/16 03:39:59;;;;;;;47.83;14.63;;;;;;;0.76;100.00;101022.00;5109929;28;20054;-64
2022/01/16 03:42:29;;;;;;;33.90;12.35;;;;;;;0.80;100.00;101031.72;5091852;28;20053;-64
2022/01/16 03:44:57;;;;;;;37.88;13.50;;;;;;;0.77;100.00;101039.50;5110383;28;20035;-64
2022/01/16 03:47:23;;;;;;;27.05;11.05;;;;;;;0.76;100.00;101032.47;5110723;28;20503;-63
2022/01/16 03:49:48;;;;;;;34.42;13.00;;;;;;;0.74;100.00;101048.16;5103105;28;20035;-63
2022/01/16 03:52:13;;;;;;;31.80;12.27;;;;;;;0.71;100.00;101048.09;5090161;28;20024;-64
2022/01/16 03:54:39;;;;;;;35.35;11.45;;;;;;;0.70;100.00;101054.19;5090484;28;20434;-64
2022/01/16 03:57:04;;;;;;;27.50;11.00;;;;;;;0.73;100.00;101053.34;5090310;28;20028;-64
2022/01/16 03:59:30;;;;;;;37.47;11.82;;;;;;;0.71;100.00;101048.09;5089973;28;20024;-64
2022/01/16 04:01:56;;;;;;;32.85;10.70;;;;;;;0.76;100.00;101048.19;5089854;28;20020;-64
2022/01/16 04:04:21;;;;;;;36.65;12.07;;;;;;;0.66;100.00;101046.22;5089440;28;20430;-64
2022/01/16 04:06:46;;;;;;;29.50;12.85;;;;;;;0.63;100.00;101060.13;5090120;28;20042;-64
2022/01/16 04:09:12;;;;;;;32.95;11.93;;;;;;;0.64;100.00;101053.16;5089069;28;20035;-64
2022/01/16 04:11:44;;;;;;;27.25;11.30;;;;;;;0.64;100.00;101032.22;5090930;28;20384;-64
2022/01/16 04:14:15;;;;;;;33.13;11.20;;;;;;;0.60;100.00;101025.13;5110927;28;20464;-64
2022/01/16 04:16:41;;;;;;;37.42;12.32;;;;;;;0.72;100.00;101054.22;5110158;28;20131;-64
2022/01/16 04:19:07;;;;;;;39.10;10.60;;;;;;;0.70;100.00;101061.13;5091521;28;20122;-64
2022/01/16 04:21:32;;;;;;;28.00;10.18;;;;;;;0.69;100.00;101068.09;5089724;28;20050;-64
2022/01/16 04:23:58;;;;;;;30.95;11.38;;;;;;;0.64;100.00;101061.00;5089589;28;20028;-64
2022/01/16 04:26:25;;;;;;;34.00;11.95;;;;;;;0.64;100.00;101063.63;5104254;28;20023;-64
2022/01/16 04:28:51;;;;;;;26.17;11.10;;;;;;;0.65;100.00;101060.16;5109627;28;20131;-64
2022/01/16 04:31:17;;;;;;;28.55;10.93;;;;;;;0.59;100.00;101070.47;5109970;28;20084;-64
2022/01/16 04:33:44;;;;;;;30.15;11.02;;;;;;;0.52;100.00;101068.56;5108442;28;20475;-64
2022/01/16 04:36:11;;;;;;;30.73;10.35;;;;;;;0.46;100.00;101060.56;5109906;28;20394;-64
2022/01/16 04:38:38;;;;;;;26.85;10.13;;;;;;;0.45;100.00;101061.41;5109794;28;20031;-64
2022/01/16 04:44:00;;;;;;;34.42;11.65;;;;;;;0.47;100.00;101044.91;5069133;28;20036;-64
2022/01/16 04:46:27;;;;;;;28.63;10.80;;;;;;;0.48;100.00;101045.78;5089730;28;20039;-64
2022/01/16 04:48:55;;;;;;;30.35;12.02;;;;;;;0.56;100.00;101059.94;5090999;28;20028;-64
2022/01/16 04:51:22;;;;;;;29.58;11.68;;;;;;;0.58;100.00;101042.53;5089098;28;20028;-64
2022/01/16 04:53:47;;;;;;;35.88;11.15;;;;;;;0.36;100.00;101035.03;5089419;28;20463;-64
2022/01/16 04:56:13;;;;;;;30.77;11.05;;;;;;;0.50;100.00;101051.94;5089524;28;20024;-64
2022/01/16 04:58:41;;;;;;;26.58;9.43;;;;;;;0.46;100.00;101050.97;5089601;28;20388;-64
2022/01/16 05:01:07;;;;;;;28.80;9.38;;;;;;;0.42;100.00;101048.25;5088972;28;20074;-64
2022/01/16 05:03:33;;;;;;;27.15;10.75;;;;;;;0.37;100.00;101050.75;5088948;28;20028;-64
2022/01/16 05:05:59;;;;;;;31.48;12.05;;;;;;;0.29;100.00;101057.53;5089338;28;20039;-64
2022/01/16 05:08:26;;;;;;;37.05;11.98;;;;;;;0.27;100.00;101060.94;5091318;28;20487;-64
2022/01/16 05:10:54;;;;;;;30.10;10.43;;;;;;;0.23;100.00;101069.56;5087932;28;20024;-64
2022/01/16 05:18:37;;;;;;;29.30;11.10;;;;;;;0.42;100.00;101080.53;5091316;28;20055;-64
2022/01/16 05:21:03;;;;;;;31.52;11.10;;;;;;;0.49;100.00;101089.44;5103624;28;20027;-64
2022/01/16 05:23:29;;;;;;;28.25;11.98;;;;;;;0.50;100.00;101088.56;5107845;28;20445;-64
2022/01/16 05:25:55;;;;;;;30.67;12.25;;;;;;;0.43;100.00;101081.44;5108745;28;20186;-64
2022/01/16 05:28:20;;;;;;;28.90;12.13;;;;;;;0.50;100.00;101086.84;5109282;28;20429;-64
2022/01/16 05:30:46;;;;;;;31.80;12.50;;;;;;;0.50;100.00;101091.19;5108541;28;20096;-64
2022/01/16 05:33:12;;;;;;;31.77;12.23;;;;;;;0.51;100.00;101090.34;5109393;28;20479;-64
2022/01/16 05:35:37;;;;;;;35.22;14.38;;;;;;;0.53;100.00;101097.38;5101411;28;20361;-64
2022/01/16 05:38:03;;;;;;;31.55;11.18;;;;;;;0.62;100.00;101092.38;5088736;28;20028;-64
2022/01/16 05:40:29;;;;;;;32.08;11.70;;;;;;;0.59;100.00;101089.69;5088828;28;20043;-64
2022/01/16 05:42:55;;;;;;;32.88;13.43;;;;;;;0.62;100.00;101104.56;5088681;28;20141;-64
2022/01/16 05:45:21;;;;;;;34.05;14.15;;;;;;;0.59;100.00;101091.44;5090926;28;20032;-64
2022/01/16 05:47:47;;;;;;;44.70;14.25;;;;;;;0.65;100.00;101081.09;5092579;28;20070;-64
2022/01/16 05:50:13;;;;;;;34.42;13.27;;;;;;;0.68;100.00;101089.00;5092353;28;20032;-64
2022/01/16 05:52:39;;;;;;;42.47;14.07;;;;;;;0.62;100.00;101087.16;5093193;28;20380;-64
2022/01/16 05:55:05;;;;;;;35.97;13.80;;;;;;;0.76;100.00;101098.81;5091834;28;20526;-64
2022/01/16 05:57:31;;;;;;;39.40;14.02;;;;;;;0.74;100.00;101100.50;5092328;28;20028;-64
2022/01/16 05:59:58;;;;;;;36.28;14.20;;;;;;;0.76;100.00;101100.53;5092082;28;20030;-64
2022/01/16 06:02:24;;;;;;;34.90;13.40;;;;;;;0.78;100.00;101098.84;5092655;28;20077;-64
2022/01/16 06:04:49;;;;;;;31.63;12.00;;;;;;;0.69;100.00;101099.50;5092216;28;20028;-64
2022/01/16 06:07:15;;;;;;;39.65;15.07;;;;;;;0.69;100.00;101088.19;5092299;28;20028;-64
2022/01/16 06:09:40;;;;;;;41.88;14.55;;;;;;;0.71;100.00;101091.72;5091816;28;20403;-64
2022/01/16 06:12:06;;;;;;;32.05;12.77;;;;;;;0.76;100.00;101117.16;5096591;28;20098;-64
2022/01/16 06:14:32;;;;;;;40.30;14.95;;;;;;;0.77;100.00;101123.28;5112514;28;20108;-64
2022/01/16 06:16:57;;;;;;;38.17;12.38;;;;;;;0.80;100.00;101139.97;5112460;28;20051;-64
2022/01/16 06:19:23;;;;;;;50.25;15.50;;;;;;;0.87;100.00;101130.50;5091491;28;20024;-64
2022/01/16 06:21:48;;;;;;;34.90;14.25;;;;;;;0.82;100.00;101143.50;5092169;28;20024;-63
2022/01/16 06:24:14;;;;;;;30.27;12.93;;;;;;;0.70;100.00;101126.59;5091547;28;20024;-64
2022/01/16 06:26:40;;;;;;;35.47;13.57;;;;;;;0.87;100.00;101141.00;5092118;28;20161;-64
2022/01/16 06:29:06;;;;;;;33.17;13.75;;;;;;;0.94;100.00;101142.91;5091250;28;20100;-64
2022/01/16 06:31:31;;;;;;;39.35;15.40;;;;;;;0.90;100.00;101125.34;5094409;28;20446;-64
2022/01/16 06:34:00;;;;;;;43.42;16.48;;;;;;;0.94;100.00;101133.28;5092660;28;20174;-64
2022/01/16 06:36:26;;;;;;;41.22;16.90;;;;;;;0.84;100.00;101115.59;5109963;28;20063;-64
2022/01/16 06:38:53;;;;;;;34.35;14.77;;;;;;;0.92;100.00;101136.75;5111893;28;20054;-64
2022/01/16 06:41:19;;;;;;;39.10;18.23;;;;;;;0.94;100.00;101138.53;5108598;28;20383;-64
2022/01/16 06:43:44;;;;;;;30.60;14.48;;;;;;;0.91;100.00;101132.34;5094195;28;20027;-64
2022/01/16 06:46:10;;;;;;;47.58;15.45;;;;;;;1.00;100.00;101143.03;5106848;28;20020;-64
2022/01/16 06:48:36;;;;;;;32.45;14.32;;;;;;;1.05;100.00;101147.56;5091573;28;20024;-64
2022/01/16 06:51:02;;;;;;;45.22;14.75;;;;;;;0.98;100.00;101136.88;5108815;28;20527;-64
2022/01/16 06:53:27;;;;;;;38.85;14.25;;;;;;;1.02;100.00;101150.06;5112196;28;20024;-64
2022/01/16 06:55:52;;;;;;;41.53;16.65;;;;;;;1.00;100.00;101148.28;5095719;28;20447;-64
2022/01/16 06:58:18;;;;;;;41.08;14.50;;;;;;;1.02;100.00;101147.44;5091587;28;20023;-64
2022/01/16 07:00:43;;;;;;;71.97;18.30;;;;;;;1.12;100.00;101159.06;5090858;28;20089;-64
2022/01/16 07:03:09;;;;;;;43.53;16.95;;;;;;;1.17;100.00;101173.16;5091073;28;20019;-64
2022/01/16 07:05:35;;;;;;;39.58;15.55;;;;;;;1.20;100.00;101167.97;5072801;28;20032;-64
2022/01/16 07:08:00;;;;;;;50.22;16.85;;;;;;;1.18;100.00;101174.91;5105599;28;20066;-64
2022/01/16 07:10:25;;;;;;;46.03;17.50;;;;;;;1.23;100.00;101173.28;5111187;28;20019;-64
2022/01/16 07:12:51;;;;;;;37.88;15.68;;;;;;;1.23;100.00;101175.91;5111246;28;20019;-64
2022/01/16 07:15:16;;;;;;;35.50;16.73;;;;;;;1.23;100.00;101173.28;5109152;28;20280;-64
2022/01/16 07:17:42;;;;;;;48.40;18.05;;;;;;;1.12;100.00;101164.28;5103047;28;20028;-64
2022/01/16 07:20:08;;;;;;;49.15;17.63;;;;;;;1.16;100.00;101174.88;5092859;28;20013;-64
2022/01/16 07:22:33;;;;;;;43.30;18.48;;;;;;;1.20;100.00;101187.19;5103375;28;20483;-64
2022/01/16 07:24:58;;;;;;;46.92;18.48;;;;;;;1.18;100.00;101177.53;5110741;28;20524;-64
2022/01/16 07:27:24;;;;;;;44.92;19.00;;;;;;;1.30;100.00;101196.16;5109244;28;20032;-64
2022/01/16 07:29:49;;;;;;;45.20;17.80;;;;;;;1.29;100.00;101199.63;5090113;28;20028;-64
2022/01/16 07:32:15;;;;;;;53.72;22.13;;;;;;;1.29;100.00;101215.34;5090011;28;20028;-64
2022/01/16 07:34:40;;;;;;;76.53;33.95;;;;;;;1.34;100.00;101213.72;5089846;28;20028;-64
2022/01/16 07:37:06;;;;;;;49.13;24.17;;;;;;;1.45;100.00;101212.22;5090784;28;20107;-64
2022/01/16 07:39:31;;;;;;;49.75;19.60;;;;;;;1.50;100.00;101223.69;5089822;28;20028;-64
2022/01/16 07:41:57;;;;;;;40.20;18.95;;;;;;;1.55;100.00;101224.69;5089992;28;20016;-64
2022/01/16 07:44:22;;;;;;;42.03;17.35;;;;;;;1.58;100.00;101218.66;5103354;28;20057;-64
2022/01/16 07:46:47;;;;;;;41.83;18.52;;;;;;;1.52;100.00;101216.75;5110085;28;20023;-64
2022/01/16 07:49:13;;;;;;;45.40;19.90;;;;;;;1.56;100.00;101226.47;5107724;28;20024;-64
2022/01/16 07:51:38;;;;;;;48.85;19.80;;;;;;;1.54;100.00;101243.00;5089823;28;20073;-64
2022/01/16 07:54:04;;;;;;;56.45;23.25;;;;;;;1.62;100.00;101237.09;5090046;28;20098;-64
2022/01/16 07:56:29;;;;;;;50.08;21.10;;;;;;;1.60;100.00;101228.31;5089776;28;20048;-64
2022/01/16 07:58:55;;;;;;;53.97;23.25;;;;;;;1.64;100.00;101251.13;5089099;28;20040;-64
2022/01/16 08:01:20;;;;;;;44.67;20.63;;;;;;;1.64;100.00;101251.13;5089804;28;20024;-64
2022/01/16 08:03:45;;;;;;;48.63;20.20;;;;;;;1.64;100.00;101256.38;5089846;28;20024;-64
2022/01/16 08:06:12;;;;;;;43.50;21.10;;;;;;;1.64;100.00;101255.47;5089629;28;20480;-64
2022/01/16 08:08:38;;;;;;;46.15;18.65;;;;;;;1.66;100.00;101246.81;5089917;28;20471;-64
2022/01/16 08:11:03;;;;;;;50.53;20.80;;;;;;;1.69;100.00;101246.88;5088928;28;20028;-64
2022/01/16 08:13:29;;;;;;;46.92;21.58;;;;;;;1.78;100.00;101249.69;5089424;28;20027;-64
2022/01/16 08:15:54;;;;;;;46.65;20.08;;;;;;;1.84;100.00;101249.84;5088756;28;20047;-64
2022/01/16 08:18:20;;;;;;;45.40;20.30;;;;;;;1.78;100.00;101244.44;5088603;28;20027;-64
2022/01/16 08:20:45;;;;;;;48.50;21.67;;;;;;;1.77;100.00;101241.78;5103574;28;20019;-64
2022/01/16 08:23:10;;;;;;;53.58;21.75;;;;;;;1.82;100.00;101241.03;5102276;28;20020;-64
2022/01/16 08:25:36;;;;;;;52.30;21.92;;;;;;;1.75;100.00;101243.47;5089213;28;20024;-64
2022/01/16 08:28:01;;;;;;;43.58;22.92;;;;;;;1.75;100.00;101249.63;5088706;28;20024;-64
2022/01/16 08:30:27;;;;;;;53.95;21.10;;;;;;;1.83;100.00;101263.78;5088145;28;20502;-64
2022/01/16 08:32:52;;;;;;;51.35;22.20;;;;;;;1.90;100.00;101270.06;5073687;28;20116;-64
2022/01/16 08:35:19;;;;;;;54.80;22.65;;;;;;;1.88;100.00;101267.41;5089089;28;20027;-64
2022/01/16 08:37:44;;;;;;;53.00;23.95;;;;;;;1.84;100.00;101278.69;5089204;28;20035;-63
2022/01/16 08:40:10;;;;;;;54.47;23.15;;;;;;;1.88;100.00;101267.41;5088707;28;20399;-64
2022/01/16 08:42:36;;;;;;;54.78;21.92;;;;;;;1.83;100.00;101269.03;5088541;28;20375;-64
2022/01/16 08:45:03;;;;;;;51.38;23.75;;;;;;;1.69;100.00;101260.00;5108136;28;20105;-64
2022/01/16 08:47:30;;;;;;;56.60;24.40;;;;;;;1.75;100.00;101270.59;5105409;28;20058;-64
2022/01/16 08:49:58;;;;;;;52.83;25.48;;;;;;;1.84;100.00;101275.19;5101241;28;20085;-64
2022/01/16 08:52:24;;;;;;;47.13;22.00;;;;;;;1.85;100.00;101267.34;5088425;28;20028;-64
2022/01/16 08:54:49;;;;;;;53.08;23.83;;;;;;;1.87;100.00;101273.50;5089001;28;20115;-64
2022/01/16 08:57:15;;;;;;;54.97;25.17;;;;;;;1.91;100.00;101267.47;5090727;28;20099;-64
2022/01/16 08:59:41;;;;;;;52.55;22.77;;;;;;;1.93;100.00;101276.25;5089097;28;20488;-65
2022/01/16 09:02:07;;;;;;;48.10;22.10;;;;;;;2.00;100.00;101278.16;5088306;28;20028;-65
2022/01/16 09:04:33;;;;;;;48.75;21.65;;;;;;;1.97;100.00;101283.34;5089149;28;20024;-62
2022/01/16 09:06:58;;;;;;;57.30;25.38;;;;;;;1.98;100.00;101289.47;5088486;28;20452;-63
2022/01/16 09:09:23;;;;;;;60.42;25.38;;;;;;;2.08;100.00;101294.97;5088517;28;20028;-63
2022/01/16 09:11:49;;;;;;;51.45;22.83;;;;;;;2.06;100.00;101303.66;5089000;28;20028;-63
2022/01/16 09:14:15;;;;;;;51.80;22.58;;;;;;;2.01;100.00;101302.69;5088792;28;20028;-63
2022/01/16 09:16:41;;;;;;;51.67;23.92;;;;;;;1.95;100.00;101300.78;5090513;28;20036;-62
2022/01/16 09:19:07;;;;;;;42.85;21.15;;;;;;;2.05;100.00;101313.28;5091683;28;20020;-64
2022/01/16 09:21:33;;;;;;;54.63;23.45;;;;;;;2.09;100.00;101303.72;5100876;28;20119;-63
2022/01/16 09:23:58;;;;;;;54.33;25.33;;;;;;;2.10;100.00;101314.25;5092776;28;20095;-63
2022/01/16 09:26:25;;;;;;;55.88;24.17;;;;;;;2.08;100.00;101318.59;5092296;28;20028;-63
2022/01/16 09:28:52;;;;;;;48.50;23.45;;;;;;;2.21;100.00;101318.00;5092239;28;20475;-63
2022/01/16 09:31:18;;;;;;;55.30;27.48;;;;;;;2.26;100.00;101323.31;5092387;28;20519;-63
2022/01/16 09:33:43;;;;;;;46.25;25.92;;;;;;;2.35;100.00;101323.53;5092870;28;20131;-63
2022/01/16 09:36:09;;;;;;;57.85;25.38;;;;;;;2.45;100.00;101329.03;5095453;28;20066;-63
2022/01/16 09:38:38;;;;;;;54.28;31.23;;;;;;;2.53;100.00;101335.31;5092964;28;20031;-63
2022/01/16 09:41:05;;;;;;;56.78;27.75;;;;;;;2.52;100.00;101340.53;5092350;28;20016;-63
2022/01/16 09:43:33;;;;;;;49.17;23.92;;;;;;;2.64;100.00;101340.78;5098987;28;20035;-63
2022/01/16 09:45:59;;;;;;;46.88;24.85;;;;;;;2.42;100.00;101349.09;5112756;28;20027;-63
2022/01/16 09:48:25;;;;;;;50.33;23.60;;;;;;;2.41;100.00;101361.31;5112894;28;20041;-63
2022/01/16 09:50:50;;;;;;;51.80;22.50;;;;;;;2.58;100.00;101370.44;5096833;28;20531;-63
2022/01/16 09:53:17;;;;;;;46.38;21.80;;;;;;;2.79;100.00;101366.47;5092707;28;20430;-64
2022/01/16 09:55:43;;;;;;;52.10;23.58;;;;;;;2.83;100.00;101363.06;5092681;28;20032;-64
2022/01/16 09:58:08;;;;;;;50.10;23.42;;;;;;;2.90;100.00;101373.69;5092967;28;20306;-64
2022/01/16 10:00:34;;;;;;;45.03;20.73;;;;;;;2.95;100.00;101369.41;5092346;28;20084;-64
2022/01/16 10:02:59;;;;;;;37.78;19.33;;;;;;;2.95;100.00;101377.31;5091991;28;20024;-64
2022/01/16 10:05:27;;;;;;;45.30;22.77;;;;;;;2.96;100.00;101372.94;5092540;28;20028;-64
2022/01/16 10:07:56;;;;;;;46.85;21.73;;;;;;;2.96;100.00;101365.06;5092528;28;20383;-64
2022/01/16 10:10:34;;;;;;;41.45;20.98;;;;;;;2.99;100.00;101373.00;5092177;28;20119;-64
2022/01/16 10:13:16;;;;;;;47.78;22.75;;;;;;;3.03;100.00;101373.06;5092069;28;20063;-64
2022/01/16 10:15:53;;;;;;;40.88;20.13;;;;;;;2.78;100.00;101367.31;5092572;28;20131;-64
2022/01/16 10:18:33;;;;;;;43.97;19.75;;;;;;;2.62;100.00;101367.00;5091666;28;20062;-64
2022/01/16 10:20:58;;;;;;;37.58;18.83;;;;;;;2.63;100.00;101381.94;5108467;28;20019;-63
2022/01/16 10:23:25;;;;;;;41.15;21.27;;;;;;;2.89;100.00;101376.28;5104989;28;20036;-63
2022/01/16 10:25:51;;;;;;;53.05;22.08;;;;;;;2.95;100.00;101358.03;5073980;28;20475;-63
2022/01/16 10:28:26;;;;;;;40.97;21.48;;;;;;;3.08;100.00;101370.56;5091712;28;20071;-63
2022/01/16 10:30:57;;;;;;;45.25;19.83;;;;;;;3.09;100.00;101375.84;5092783;28;20031;-63
2022/01/16 10:33:25;;;;;;;47.45;20.73;;;;;;;3.12;100.00;101381.16;5091165;28;20016;-63
2022/01/16 10:35:53;;;;;;;44.97;20.85;;;;;;;2.78;100.00;101380.47;5092245;28;20021;-63
2022/01/16 10:38:21;;;;;;;45.72;22.00;;;;;;;2.69;100.00;101379.41;5091250;28;20111;-63
2022/01/16 10:40:51;;;;;;;41.60;19.85;;;;;;;2.73;100.00;101394.38;5094109;28;20031;-63
2022/01/16 10:43:35;;;;;;;44.38;20.10;;;;;;;2.81;100.00;101396.28;5095646;28;20045;-63
2022/01/16 10:46:01;;;;;;;41.47;20.52;;;;;;;3.28;100.00;101392.84;5112089;28;20107;-63
2022/01/16 10:48:27;;;;;;;46.80;19.83;;;;;;;3.34;100.00;101400.84;5111557;28;20114;-64
2022/01/16 10:50:52;;;;;;;45.35;20.55;;;;;;;3.34;100.00;101401.75;5095411;28;20055;-64
2022/01/16 10:53:23;;;;;;;36.67;20.38;;;;;;;3.39;100.00;101409.72;5091029;28;20432;-64
2022/01/16 10:55:54;;;;;;;44.92;20.58;;;;;;;3.42;100.00;101407.13;5092203;28;20020;-64
2022/01/16 10:58:29;;;;;;;35.90;19.95;;;;;;;3.42;100.00;101409.75;5090903;28;20134;-64
2022/01/16 11:01:04;;;;;;;40.58;20.25;;;;;;;3.42;100.00;101413.28;5093538;28;20019;-64
2022/01/16 11:03:44;;;;;;;51.60;22.10;;;;;;;3.36;100.00;101418.41;5091242;28;20035;-64
2022/01/16 11:06:09;;;;;;;41.33;20.23;;;;;;;3.33;100.00;101405.22;5091656;28;20028;-64
2022/01/16 11:08:35;;;;;;;42.67;21.55;;;;;;;3.32;100.00;101410.44;5091075;28;20032;-63
2022/01/16 11:11:01;;;;;;;37.58;19.73;;;;;;;3.34;100.00;101408.72;5090516;28;20030;-63
2022/01/16 11:13:30;;;;;;;40.38;20.55;;;;;;;3.36;100.00;101407.03;5090291;28;20395;-63
2022/01/16 11:15:58;;;;;;;48.17;21.30;;;;;;;3.06;100.00;101406.44;5091265;28;20052;-64
2022/01/16 11:18:25;;;;;;;43.53;21.42;;;;;;;3.28;100.00;101406.00;5090435;28;20024;-64
2022/01/16 11:21:03;;;;;;;46.53;22.08;;;;;;;3.39;100.00;101412.34;5105859;28;20027;-63
2022/01/16 11:23:35;;;;;;;47.33;22.40;;;;;;;3.45;100.00;101408.06;5111411;28;20059;-63
2022/01/16 11:26:04;;;;;;;43.60;23.60;;;;;;;3.43;100.00;101398.38;5104456;28;20020;-63
2022/01/16 11:28:30;;;;;;;46.00;22.48;;;;;;;3.52;100.00;101403.81;5098315;28;20323;-63
2022/01/16 11:30:59;;;;;;;48.92;22.83;;;;;;;3.53;100.00;101395.03;5094820;28;20028;-63
2022/01/16 11:33:26;;;;;;;40.80;21.92;;;;;;;3.68;100.00;101400.56;5090723;28;20122;-63
2022/01/16 11:36:05;;;;;;;45.00;24.33;;;;;;;3.67;100.00;101406.72;5090543;28;20023;-64
2022/01/16 11:38:58;;;;;;;45.42;23.92;;;;;;;3.79;100.00;101410.41;5090260;28;20107;-64
2022/01/16 11:41:32;;;;;;;49.58;22.58;;;;;;;3.69;100.00;101392.72;5087651;28;20085;-64
2022/01/16 11:43:59;;;;;;;48.40;23.42;;;;;;;3.93;99.95;101398.41;5099704;28;20035;-64
2022/01/16 11:46:26;;;;;;;50.05;24.08;;;;;;;4.00;100.00;101394.97;5111095;28;20051;-64
2022/01/16 11:48:58;;;;;;;52.85;26.35;;;;;;;4.06;100.00;101394.19;5110026;28;20027;-64
2022/01/16 11:51:32;;;;;;;62.22;29.33;;;;;;;4.32;98.83;101384.94;5090124;28;20094;-64
2022/01/16 11:53:57;;;;;;;47.58;22.75;;;;;;;4.38;97.55;101381.50;5090212;28;20048;-64